Time;durP1;ratioP1;P1;durP2;ratioP2;P2;SDS_P1;SDS_P2;PMS_P1;PMS_P2;Temp;Humidity;BMP_temperature;BMP_pressure;BME280_temperature;BME280_humidity;BME280_pressure;Samples;Min_cycle;Max_cycle;Signal;HPM_P1;HPM_P2
2023/09/07 00:01:34;;;;;;;14.10;8.85;;;;;;;15.37;66.98;100997.06;30841827;28;97332;-62
2023/09/07 00:16:35;;;;;;;11.60;7.57;;;;;;;15.17;67.73;101005.63;30841911;28;97388;-64
2023/09/07 00:31:35;;;;;;;9.88;6.70;;;;;;;15.03;67.76;101007.22;30840596;28;96782;-61
2023/09/07 00:46:36;;;;;;;9.32;6.80;;;;;;;14.85;68.16;100991.44;30838173;28;113548;-61
2023/09/07 01:01:36;;;;;;;10.82;6.38;;;;;;;14.73;68.29;100995.56;30837593;28;97802;-62
2023/09/07 01:16:39;;;;;;;9.27;6.63;;;;;;;14.57;68.65;100988.44;30836768;28;99146;-63
2023/09/07 01:31:40;;;;;;;8.60;5.67;;;;;;;14.40;68.86;100993.03;30835865;28;96946;-61
2023/09/07 01:46:40;;;;;;;12.43;6.10;;;;;;;14.19;69.08;100991.81;30835397;28;105071;-62
2023/09/07 02:01:40;;;;;;;10.45;6.72;;;;;;;13.96;69.38;100996.25;30851692;28;107648;-64
2023/09/07 02:16:41;;;;;;;11.10;7.30;;;;;;;13.76;69.96;101001.97;30852261;28;97034;-61
2023/09/07 02:31:42;;;;;;;11.97;9.00;;;;;;;13.64;70.63;101012.25;30851157;28;97474;-61
2023/09/07 02:46:42;;;;;;;14.80;8.25;;;;;;;13.53;70.96;101005.41;30849035;28;97257;-61
2023/09/07 03:01:42;;;;;;;13.52;7.85;;;;;;;13.46;71.32;101008.91;30844278;28;97421;-61
2023/09/07 03:16:43;;;;;;;12.98;7.72;;;;;;;13.36;71.77;101011.78;30842571;28;97431;-61
2023/09/07 03:31:43;;;;;;;12.30;7.68;;;;;;;13.22;71.67;101005.22;30841361;28;100656;-61
2023/09/07 03:46:43;;;;;;;11.45;8.05;;;;;;;13.09;72.20;101013.72;30840407;28;108673;-61
2023/09/07 04:01:44;;;;;;;10.93;7.38;;;;;;;12.94;72.22;101015.41;30840960;28;97545;-61
2023/09/07 04:16:44;;;;;;;16.77;8.40;;;;;;;12.87;72.56;101017.91;30837064;28;96734;-60
2023/09/07 04:31:45;;;;;;;13.52;8.75;;;;;;;12.88;73.04;101024.94;30834993;28;97039;-60
2023/09/07 04:46:45;;;;;;;16.42;8.20;;;;;;;13.09;73.15;101051.19;30834175;28;97644;-61
2023/09/07 05:01:45;;;;;;;12.05;7.50;;;;;;;13.51;73.30;101055.56;30831702;28;113929;-65
2023/09/07 05:16:46;;;;;;;15.00;8.05;;;;;;;14.07;72.85;101049.47;30833654;28;97192;-61
2023/09/07 05:31:46;;;;;;;10.30;7.00;;;;;;;14.77;72.24;101065.78;30843562;28;97694;-66
2023/09/07 05:46:47;;;;;;;12.90;7.15;;;;;;;15.68;71.17;101079.38;30850492;28;114066;-64
2023/09/07 06:01:48;;;;;;;12.93;7.37;;;;;;;16.61;69.63;101087.94;30849276;28;97240;-64
2023/09/07 06:16:48;;;;;;;14.35;7.00;;;;;;;17.62;68.25;101088.97;30846039;28;97140;-63
2023/09/07 06:31:49;;;;;;;11.77;7.35;;;;;;;18.50;67.16;101100.13;30845496;28;115394;-67
2023/09/07 06:46:50;;;;;;;;;;;;;;;19.64;65.03;101105.00;30846261;28;97447;-62
2023/09/07 07:01:50;;;;;;;11.60;7.38;;;;;;;20.86;62.24;101118.06;30843621;28;97154;-63
2023/09/07 07:16:51;;;;;;;12.67;7.37;;;;;;;21.71;58.84;101125.88;30844082;28;97642;-63
2023/09/07 07:31:51;;;;;;;12.60;7.85;;;;;;;23.05;56.76;101127.13;30842049;28;96774;-66
2023/09/07 07:46:51;;;;;;;14.35;7.00;;;;;;;23.99;53.12;101137.41;30835455;28;97278;-61
2023/09/07 08:01:52;;;;;;;12.82;7.05;;;;;;;25.61;50.18;101140.34;30832824;28;112077;-62
2023/09/07 08:16:53;;;;;;;12.25;6.65;;;;;;;27.27;45.71;101131.31;30835141;28;109834;-62
2023/09/07 08:31:53;;;;;;;14.80;6.90;;;;;;;28.35;41.33;101136.75;30834347;28;96759;-71
2023/09/07 08:46:55;;;;;;;11.05;5.40;;;;;;;29.93;37.73;101129.09;30835752;28;96760;-64
2023/09/07 09:01:58;;;;;;;13.70;4.93;;;;;;;37.94;26.19;101131.41;30838180;28;97140;-62
2023/09/07 09:16:59;;;;;;;9.37;4.43;;;;;;;43.72;20.21;101124.75;30856101;28;96849;-64
2023/09/07 09:32:04;;;;;;;7.72;3.88;;;;;;;47.36;16.55;101123.63;30850942;28;117029;-63
2023/09/07 09:47:05;;;;;;;5.40;3.43;;;;;;;49.86;13.95;101098.72;30848235;28;97412;-62
2023/09/07 10:02:07;;;;;;;4.90;3.63;;;;;;;51.72;12.45;101105.84;30847245;28;97851;-64
2023/09/07 10:17:09;;;;;;;5.80;3.30;;;;;;;53.78;10.68;101093.47;30846542;28;97588;-64
2023/09/07 10:32:14;;;;;;;6.03;3.00;;;;;;;55.60;9.72;101100.81;30846825;28;97548;-63
2023/09/07 10:47:15;;;;;;;6.63;3.17;;;;;;;53.88;9.61;101085.06;30846319;28;97596;-63
2023/09/07 11:02:16;;;;;;;5.55;2.88;;;;;;;55.79;8.65;101050.38;30844100;28;96656;-61
2023/09/07 11:17:16;;;;;;;4.03;2.88;;;;;;;56.47;7.92;101046.16;30842075;28;97261;-63
2023/09/07 11:32:21;;;;;;;3.83;2.65;;;;;;;56.09;7.96;101046.00;30838961;28;97921;-63
2023/09/07 11:47:21;;;;;;;4.00;3.23;;;;;;;53.90;8.52;101019.88;30838684;28;97890;-61
2023/09/07 12:02:22;;;;;;;4.80;3.25;;;;;;;48.19;11.62;101016.25;30834854;28;97080;-63
2023/09/07 12:17:23;;;;;;;4.85;3.38;;;;;;;40.97;16.81;101007.97;30834729;28;98069;-62
2023/09/07 12:32:23;;;;;;;6.93;3.73;;;;;;;37.06;19.91;101001.06;30833825;28;96789;-64
2023/09/07 12:47:23;;;;;;;9.23;3.72;;;;;;;35.31;21.54;100975.88;30837292;28;98053;-63
2023/09/07 13:02:24;;;;;;;8.25;3.90;;;;;;;34.84;21.94;100965.19;30835544;28;104127;-62
2023/09/07 13:17:24;;;;;;;7.20;3.63;;;;;;;33.84;23.26;100958.63;30832492;28;111510;-64
2023/09/07 13:32:25;;;;;;;6.70;3.92;;;;;;;33.31;23.66;100950.84;30831931;28;116950;-69
2023/09/07 13:47:25;;;;;;;6.18;4.00;;;;;;;32.67;24.64;100949.44;30830779;28;96749;-72
2023/09/07 14:02:26;;;;;;;6.07;3.50;;;;;;;32.16;25.73;100939.19;30849655;28;110134;-69
2023/09/07 14:17:26;;;;;;;6.18;3.70;;;;;;;30.91;26.83;100936.19;30848324;28;97147;-69
2023/09/07 14:32:26;;;;;;;6.07;4.63;;;;;;;30.21;28.49;100932.56;30848320;28;100883;-70
2023/09/07 14:47:30;;;;;;;6.25;3.80;;;;;;;29.48;29.61;100924.94;30847329;28;97162;-63
2023/09/07 15:02:30;;;;;;;9.17;4.00;;;;;;;29.11;30.18;100917.88;30844772;28;97194;-65
2023/09/07 15:17:30;;;;;;;5.88;3.92;;;;;;;28.50;30.49;100909.38;30843653;28;97278;-64
2023/09/07 15:32:31;;;;;;;6.05;4.35;;;;;;;28.00;31.90;100919.97;30842423;28;97238;-62
2023/09/07 15:47:34;;;;;;;9.23;4.32;;;;;;;27.36;33.02;100899.97;30837991;28;115129;-64
2023/09/07 16:02:34;;;;;;;9.80;4.50;;;;;;;26.90;34.31;100887.91;30836101;28;97411;-62
2023/09/07 16:17:36;;;;;;;6.50;3.97;;;;;;;26.39;35.51;100896.50;30835876;28;96973;-63
2023/09/07 16:32:41;;;;;;;9.15;4.10;;;;;;;25.86;36.48;100902.47;30835739;28;96791;-62
2023/09/07 16:47:42;;;;;;;5.47;3.73;;;;;;;25.33;37.64;100908.38;30834209;28;97453;-63
2023/09/07 17:02:42;;;;;;;9.15;4.63;;;;;;;24.77;39.17;100904.78;30833224;28;96776;-62
2023/09/07 17:17:43;;;;;;;8.82;4.47;;;;;;;24.17;40.82;100915.16;30831891;28;96909;-62
2023/09/07 17:32:43;;;;;;;7.10;4.20;;;;;;;23.57;42.20;100925.34;30849380;28;97351;-63
2023/09/07 17:47:44;;;;;;;8.73;5.97;;;;;;;23.01;43.77;100921.34;30850725;28;97845;-64
2023/09/07 18:02:44;;;;;;;10.03;4.93;;;;;;;22.48;45.18;100921.97;30850820;28;97158;-62
2023/09/07 18:17:45;;;;;;;10.15;5.38;;;;;;;22.02;46.33;100920.69;30851136;28;97085;-67
2023/09/07 18:32:47;;;;;;;12.57;5.23;;;;;;;21.59;47.63;100930.56;30846237;28;97652;-66
2023/09/07 18:47:48;;;;;;;9.93;5.20;;;;;;;21.17;48.59;100932.22;30844718;28;97589;-61
2023/09/07 19:02:48;;;;;;;10.10;5.83;;;;;;;20.78;49.64;100933.16;30843437;28;96915;-61
2023/09/07 19:17:49;;;;;;;8.93;5.27;;;;;;;20.44;50.66;100940.63;30844397;28;97205;-63
2023/09/07 19:32:49;;;;;;;9.48;5.55;;;;;;;20.19;51.52;100940.59;30842083;28;97735;-62
2023/09/07 19:47:49;;;;;;;14.18;5.95;;;;;;;19.96;52.55;100935.69;30899205;28;97398;-63
2023/09/07 20:02:50;;;;;;;11.52;6.15;;;;;;;19.65;53.70;100936.41;30961298;28;97505;-61
2023/09/07 20:17:50;;;;;;;9.95;6.18;;;;;;;19.38;54.47;100945.41;30962856;28;96851;-62
2023/09/07 20:32:51;;;;;;;8.30;6.72;;;;;;;19.11;55.10;100939.19;30961084;28;97668;-62
2023/09/07 20:47:52;;;;;;;7.97;5.80;;;;;;;18.87;55.79;100937.91;30959616;28;96702;-66
2023/09/07 21:02:52;;;;;;;10.20;5.67;;;;;;;18.59;56.69;100939.75;30984913;28;97406;-61
2023/09/07 21:17:53;;;;;;;11.18;6.07;;;;;;;18.35;57.55;100930.34;30999199;28;96768;-67
2023/09/07 21:32:53;;;;;;;9.38;6.03;;;;;;;18.09;58.38;100920.31;31000876;28;97175;-67
2023/09/07 21:47:53;;;;;;;8.50;5.93;;;;;;;17.84;59.31;100928.91;30997767;28;97177;-64
2023/09/07 22:02:54;;;;;;;10.40;6.47;;;;;;;17.64;59.96;100923.41;30997585;28;97139;-73
2023/09/07 22:17:54;;;;;;;10.85;6.90;;;;;;;17.44;60.88;100931.34;30979171;28;97399;-69
2023/09/07 22:32:55;;;;;;;8.93;6.57;;;;;;;17.22;61.57;100926.06;30975177;28;97106;-72
2023/09/07 22:47:55;;;;;;;11.02;6.38;;;;;;;16.99;62.32;100930.81;30974283;28;96602;-62
2023/09/07 23:02:56;;;;;;;11.73;6.68;;;;;;;16.69;62.94;100920.19;30973627;28;97094;-74
2023/09/07 23:17:57;;;;;;;10.85;6.97;;;;;;;16.52;63.72;100922.31;30969824;28;97135;-70
2023/09/07 23:32:59;;;;;;;10.77;6.87;;;;;;;16.30;64.32;100916.09;30969440;28;97137;-62
2023/09/07 23:47:59;;;;;;;9.37;6.40;;;;;;;16.06;65.09;100916.22;30966987;28;97327;-65
